Time;durP1;ratioP1;P1;durP2;ratioP2;P2;SDS_P1;SDS_P2;PMS_P1;PMS_P2;Temp;Humidity;BMP_temperature;BMP_pressure;BME280_temperature;BME280_humidity;BME280_pressure;Samples;Min_cycle;Max_cycle;Signal;HPM_P1;HPM_P2
2021/01/17 00:00:20;;;;;;;30.50;16.85;;;2.70;79.20;;;;;;4883215;29;20040;-86
2021/01/17 00:02:47;;;;;;;24.88;14.45;;;2.70;79.30;;;;;;4896337;29;20044;-86
2021/01/17 00:05:16;;;;;;;24.08;15.32;;;2.70;79.20;;;;;;4878057;29;20052;-86
2021/01/17 00:07:41;;;;;;;25.73;14.63;;;2.70;79.20;;;;;;4882930;29;20099;-86
2021/01/17 00:10:16;;;;;;;23.73;14.52;;;2.70;79.20;;;;;;4914526;29;20478;-86
2021/01/17 00:12:42;;;;;;;23.98;14.77;;;2.70;79.20;;;;;;4910869;29;20395;-86
2021/01/17 00:15:10;;;;;;;24.35;15.35;;;2.70;79.20;;;;;;4880792;29;20037;-86
2021/01/17 00:17:37;;;;;;;24.60;13.68;;;2.70;79.80;;;;;;4880393;29;20056;-86
2021/01/17 00:20:07;;;;;;;21.27;13.52;;;2.70;79.10;;;;;;4897509;29;20040;-86
2021/01/17 00:22:33;;;;;;;24.80;15.93;;;2.70;79.10;;;;;;4912595;29;20056;-86
2021/01/17 00:24:59;;;;;;;23.45;14.60;;;2.70;79.10;;;;;;4897123;29;20597;-86
2021/01/17 00:27:24;;;;;;;25.17;15.82;;;2.70;79.20;;;;;;4896364;29;20099;-86
2021/01/17 00:29:50;;;;;;;23.65;15.07;;;2.70;79.20;;;;;;4883941;29;20036;-86
2021/01/17 00:32:15;;;;;;;21.95;14.45;;;2.70;79.20;;;;;;4882442;29;20044;-86
2021/01/17 00:34:41;;;;;;;27.83;15.90;;;2.70;79.10;;;;;;4865418;29;20044;-86
2021/01/17 00:37:07;;;;;;;25.02;16.02;;;2.70;79.10;;;;;;4888289;29;20115;-86
2021/01/17 00:39:34;;;;;;;26.10;16.63;;;2.70;79.00;;;;;;4908647;29;20042;-86
2021/01/17 00:42:01;;;;;;;25.48;16.25;;;2.70;79.10;;;;;;4914882;29;20040;-86
2021/01/17 00:44:27;;;;;;;26.08;15.68;;;2.70;79.10;;;;;;4899315;29;20036;-86
2021/01/17 00:46:53;;;;;;;23.75;15.30;;;2.70;79.20;;;;;;4915529;29;20498;-86
2021/01/17 00:49:18;;;;;;;29.02;17.35;;;2.70;79.20;;;;;;4899303;29;20040;-86
2021/01/17 00:51:45;;;;;;;26.55;16.88;;;2.70;79.30;;;;;;4883669;29;20075;-86
2021/01/17 00:54:12;;;;;;;25.85;15.95;;;2.70;79.40;;;;;;4913302;29;20119;-86
2021/01/17 00:56:39;;;;;;;27.13;15.35;;;2.70;79.40;;;;;;4888338;29;20039;-86
2021/01/17 00:59:06;;;;;;;23.67;14.55;;;2.70;79.40;;;;;;4898605;29;20032;-86
2021/01/17 01:01:42;;;;;;;22.17;14.63;;;2.70;79.30;;;;;;4880370;29;20506;-87
2021/01/17 01:04:09;;;;;;;22.75;13.73;;;2.70;79.30;;;;;;4879600;29;20092;-85
2021/01/17 01:06:35;;;;;;;20.00;13.15;;;2.70;79.20;;;;;;4912551;29;20039;-86
2021/01/17 01:09:04;;;;;;;21.17;13.43;;;2.70;79.20;;;;;;4897127;29;20052;-86
2021/01/17 01:11:29;;;;;;;20.50;12.82;;;2.80;79.20;;;;;;4880384;29;20056;-86
2021/01/17 01:13:55;;;;;;;21.30;13.55;;;2.80;79.10;;;;;;4865189;29;20085;-86
2021/01/17 01:16:21;;;;;;;22.02;14.15;;;2.80;79.10;;;;;;4880705;29;20043;-86
2021/01/17 01:18:46;;;;;;;21.75;13.98;;;2.80;79.10;;;;;;4885179;29;20100;-86
2021/01/17 01:21:12;;;;;;;22.95;14.40;;;2.80;79.10;;;;;;4899395;29;20044;-86
2021/01/17 01:23:38;;;;;;;19.42;13.10;;;2.80;79.10;;;;;;4865825;29;20049;-85
2021/01/17 01:26:04;;;;;;;21.33;13.18;;;2.80;79.10;;;;;;4861824;29;20041;-86
2021/01/17 01:28:29;;;;;;;22.23;13.07;;;2.80;79.10;;;;;;4878113;29;20044;-86
2021/01/17 01:30:56;;;;;;;19.05;13.15;;;2.80;79.10;;;;;;4919387;29;20052;-85
2021/01/17 01:33:22;;;;;;;18.88;11.70;;;2.80;79.10;;;;;;4890955;29;20131;-87
2021/01/17 01:35:49;;;;;;;20.60;12.80;;;2.80;79.00;;;;;;4898003;29;20032;-86
2021/01/17 01:38:15;;;;;;;22.10;12.40;;;2.80;79.00;;;;;;4909187;29;20057;-86
2021/01/17 01:40:50;;;;;;;20.73;13.00;;;2.80;79.00;;;;;;4884003;29;20043;-86
2021/01/17 01:43:19;;;;;;;19.77;12.30;;;2.80;79.00;;;;;;4884120;29;20051;-86
2021/01/17 01:45:45;;;;;;;20.13;13.00;;;2.90;79.00;;;;;;4883970;29;20051;-86
2021/01/17 01:48:11;;;;;;;19.67;12.75;;;2.80;78.90;;;;;;4876331;29;20044;-86
2021/01/17 01:50:36;;;;;;;19.48;12.15;;;2.90;78.90;;;;;;4902523;29;20130;-86
2021/01/17 01:53:03;;;;;;;20.13;12.63;;;2.90;78.90;;;;;;4878620;29;20048;-86
2021/01/17 01:55:29;;;;;;;19.60;12.02;;;2.80;78.90;;;;;;4868270;29;20068;-85
2021/01/17 01:58:03;;;;;;;21.85;12.88;;;2.90;78.90;;;;;;4858652;29;20071;-86
2021/01/17 02:00:29;;;;;;;19.50;12.40;;;2.90;78.90;;;;;;4901256;29;20067;-86
2021/01/17 02:02:54;;;;;;;18.65;12.15;;;2.90;78.90;;;;;;4870837;29;20048;-86
2021/01/17 02:05:20;;;;;;;19.35;12.23;;;2.90;78.90;;;;;;4886661;29;20036;-86
2021/01/17 02:08:10;;;;;;;19.65;12.15;;;2.90;78.90;;;;;;4891937;29;20044;-86
2021/01/17 02:10:36;;;;;;;20.58;12.57;;;2.90;79.40;;;;;;4913952;23;20490;-86
2021/01/17 02:13:30;;;;;;;20.02;12.80;;;2.90;78.80;;;;;;4886233;29;20064;-86
2021/01/17 02:15:58;;;;;;;19.13;12.63;;;2.90;78.90;;;;;;4910920;29;20040;-86
2021/01/17 02:18:24;;;;;;;20.45;12.20;;;2.90;78.90;;;;;;4905282;29;20036;-86
2021/01/17 02:20:51;;;;;;;25.40;15.05;;;2.90;78.90;;;;;;4920254;29;20035;-86
2021/01/17 02:23:28;;;;;;;23.20;14.73;;;2.90;79.00;;;;;;4911554;29;20052;-86
2021/01/17 02:25:54;;;;;;;22.35;13.48;;;2.90;79.10;;;;;;4937529;29;20035;-86
2021/01/17 02:28:20;;;;;;;22.10;13.30;;;2.90;79.10;;;;;;4905285;29;20036;-86
2021/01/17 02:30:53;;;;;;;22.67;14.68;;;2.90;79.10;;;;;;4901711;29;20055;-86
2021/01/17 02:33:25;;;;;;;20.65;13.15;;;2.90;79.10;;;;;;4919815;29;20477;-86
2021/01/17 02:36:37;;;;;;;20.55;12.32;;;2.90;79.20;;;;;;4920136;29;20047;-87
2021/01/17 02:39:22;;;;;;;20.35;12.95;;;2.90;79.20;;;;;;4902777;29;20047;-86
2021/01/17 02:42:03;;;;;;;17.60;11.73;;;2.90;79.20;;;;;;4919814;29;20036;-87
2021/01/17 02:44:33;;;;;;;19.15;11.93;;;2.90;79.10;;;;;;4887316;29;20075;-87
2021/01/17 02:47:01;;;;;;;21.10;12.50;;;2.90;79.10;;;;;;4901139;29;20158;-86
2021/01/17 02:49:27;;;;;;;21.15;11.85;;;2.90;79.10;;;;;;4894089;29;20052;-86
2021/01/17 02:51:53;;;;;;;18.50;12.02;;;2.90;79.10;;;;;;4904170;29;20054;-86
2021/01/17 02:54:31;;;;;;;20.63;12.65;;;2.90;79.10;;;;;;4888561;29;20058;-86
2021/01/17 02:57:10;;;;;;;20.53;12.47;;;2.90;79.10;;;;;;4920078;29;20517;-86
2021/01/17 02:59:41;;;;;;;22.45;13.48;;;3.00;79.20;;;;;;4920611;29;20044;-87
2021/01/17 03:02:09;;;;;;;22.45;13.63;;;3.00;79.20;;;;;;4919773;29;20040;-86
2021/01/17 03:04:46;;;;;;;27.27;15.87;;;2.90;79.10;;;;;;4911467;29;20074;-87
2021/01/17 03:07:13;;;;;;;25.17;15.15;;;2.90;79.30;;;;;;4919795;29;20122;-86
2021/01/17 03:09:42;;;;;;;23.13;14.50;;;2.90;79.40;;;;;;4900631;29;20067;-87
2021/01/17 03:12:08;;;;;;;22.05;13.85;;;2.90;79.50;;;;;;4900043;29;20052;-87
2021/01/17 03:14:38;;;;;;;24.13;15.27;;;2.90;79.60;;;;;;4900213;29;20064;-87
2021/01/17 03:17:05;;;;;;;20.42;12.75;;;2.90;79.60;;;;;;4900295;29;20039;-86
2021/01/17 03:19:30;;;;;;;20.55;12.30;;;2.90;79.60;;;;;;4905368;29;20725;-87
2021/01/17 03:21:56;;;;;;;21.45;14.10;;;2.90;79.50;;;;;;4903202;29;20035;-87
2021/01/17 03:24:22;;;;;;;20.13;12.63;;;2.90;79.50;;;;;;4918393;29;20043;-87
2021/01/17 03:26:47;;;;;;;18.73;11.48;;;2.90;79.50;;;;;;4903210;29;20175;-87
2021/01/17 03:29:13;;;;;;;20.67;13.00;;;2.90;79.50;;;;;;4898705;29;20138;-86
2021/01/17 03:31:39;;;;;;;20.52;12.73;;;3.00;79.60;;;;;;4910426;29;20051;-87
2021/01/17 03:34:04;;;;;;;21.00;13.02;;;2.90;79.50;;;;;;4901722;29;20072;-87
2021/01/17 03:36:30;;;;;;;18.23;11.57;;;3.00;79.50;;;;;;4887324;29;20040;-87
2021/01/17 03:38:55;;;;;;;18.77;11.93;;;3.00;79.40;;;;;;4899633;29;20044;-87
2021/01/17 03:41:23;;;;;;;19.30;12.00;;;3.00;79.40;;;;;;4899609;29;20048;-87
2021/01/17 03:43:49;;;;;;;18.23;11.93;;;3.00;79.40;;;;;;4924709;29;20036;-87
2021/01/17 03:46:14;;;;;;;17.73;10.98;;;3.00;79.30;;;;;;4902396;29;20043;-87
2021/01/17 03:48:40;;;;;;;17.60;11.40;;;3.00;79.40;;;;;;4918271;29;20050;-87
2021/01/17 03:51:06;;;;;;;19.80;12.27;;;3.00;79.40;;;;;;4918435;29;20074;-87
2021/01/17 03:53:31;;;;;;;20.25;13.18;;;3.00;79.30;;;;;;4872367;29;20044;-87
2021/01/17 03:55:57;;;;;;;20.90;12.25;;;3.00;79.30;;;;;;4884295;29;20048;-87
2021/01/17 03:58:23;;;;;;;18.77;11.00;;;3.00;79.30;;;;;;4899536;29;20043;-87
2021/01/17 04:00:48;;;;;;;19.58;11.98;;;3.00;79.30;;;;;;4914902;29;20035;-87
2021/01/17 04:03:14;;;;;;;19.75;12.32;;;3.00;79.30;;;;;;4886660;29;20102;-87
2021/01/17 04:05:40;;;;;;;17.58;11.65;;;3.00;79.40;;;;;;4902729;29;20043;-87
2021/01/17 04:08:05;;;;;;;18.23;10.90;;;3.00;79.40;;;;;;4908369;29;20040;-87
2021/01/17 04:10:31;;;;;;;21.02;12.77;;;3.00;79.40;;;;;;4861412;29;677142;-87
2021/01/17 04:12:57;;;;;;;19.85;11.50;;;3.00;79.40;;;;;;4885310;29;20057;-87
2021/01/17 04:15:22;;;;;;;20.33;12.82;;;3.00;79.40;;;;;;4899995;29;20087;-88
2021/01/17 04:17:48;;;;;;;19.52;11.48;;;3.00;79.40;;;;;;4900251;29;20072;-87
2021/01/17 04:20:15;;;;;;;17.63;11.45;;;3.00;79.40;;;;;;4900416;29;20495;-88
2021/01/17 04:22:41;;;;;;;17.73;11.23;;;3.10;79.40;;;;;;4918972;29;20032;-88
2021/01/17 04:25:08;;;;;;;18.98;11.23;;;3.10;80.10;;;;;;4919309;29;20412;-89
2021/01/17 04:27:34;;;;;;;17.27;10.48;;;3.10;79.50;;;;;;4915881;29;20482;-89
2021/01/17 04:29:59;;;;;;;19.02;11.85;;;3.10;79.50;;;;;;4902911;29;20048;-89
2021/01/17 04:32:25;;;;;;;17.55;10.88;;;3.10;79.40;;;;;;4900172;29;20127;-89
2021/01/17 04:34:54;;;;;;;18.35;11.38;;;3.10;79.40;;;;;;4885299;29;20047;-89
2021/01/17 04:37:23;;;;;;;19.50;11.27;;;3.10;79.40;;;;;;4884799;29;20059;-89
2021/01/17 04:39:49;;;;;;;20.85;11.98;;;3.10;79.40;;;;;;4905785;29;20241;-89
2021/01/17 04:42:20;;;;;;;21.13;12.35;;;3.10;79.40;;;;;;4899704;29;20051;-89
2021/01/17 04:44:53;;;;;;;20.58;12.13;;;3.10;79.50;;;;;;4901348;29;20040;-88
2021/01/17 04:47:20;;;;;;;18.42;11.30;;;3.10;79.60;;;;;;4888054;29;20051;-90
2021/01/17 04:49:51;;;;;;;20.00;12.05;;;3.10;79.60;;;;;;4903165;29;20410;-89
2021/01/17 04:52:20;;;;;;;21.38;11.27;;;3.10;79.60;;;;;;4918715;29;20040;-90
2021/01/17 04:54:46;;;;;;;19.42;11.70;;;3.10;79.60;;;;;;4911294;29;20033;-89
2021/01/17 04:57:22;;;;;;;19.33;11.57;;;3.10;80.10;;;;;;4916725;29;20044;-89
2021/01/17 05:00:06;;;;;;;20.70;12.20;;;3.10;79.50;;;;;;4918562;29;20031;-88
2021/01/17 05:02:43;;;;;;;17.73;10.52;;;3.10;79.60;;;;;;4906088;29;20044;-89
2021/01/17 05:05:23;;;;;;;19.50;11.27;;;3.10;79.60;;;;;;4897237;29;20393;-88
2021/01/17 05:07:50;;;;;;;19.75;11.15;;;3.10;79.60;;;;;;4919303;29;20121;-89
2021/01/17 05:10:33;;;;;;;18.67;10.85;;;3.10;79.50;;;;;;4921869;29;20518;-89
2021/01/17 05:13:08;;;;;;;19.00;11.57;;;3.10;79.50;;;;;;4907518;29;20051;-90
2021/01/17 05:15:41;;;;;;;17.67;10.65;;;3.10;79.60;;;;;;4922484;29;20096;-90
2021/01/17 05:18:07;;;;;;;16.88;10.15;;;3.10;79.60;;;;;;4923006;29;20043;-89
2021/01/17 05:20:33;;;;;;;17.80;11.20;;;3.10;79.60;;;;;;4903763;29;20068;-89
2021/01/17 05:22:59;;;;;;;17.88;10.50;;;3.10;79.60;;;;;;4920885;29;20040;-89
2021/01/17 05:25:29;;;;;;;15.90;10.35;;;3.10;79.60;;;;;;4914516;29;20079;-89
2021/01/17 05:27:55;;;;;;;16.77;10.00;;;3.20;79.60;;;;;;4922549;29;20050;-89
2021/01/17 05:30:21;;;;;;;15.23;9.70;;;3.20;79.60;;;;;;4903112;29;20092;-89
2021/01/17 05:32:52;;;;;;;15.73;10.32;;;3.10;79.60;;;;;;4909754;29;20052;-89
2021/01/17 05:35:19;;;;;;;15.27;9.32;;;3.20;79.60;;;;;;4895476;29;20040;-88
2021/01/17 05:37:53;;;;;;;17.10;9.85;;;3.20;79.50;;;;;;4933769;29;20114;-89
2021/01/17 05:40:19;;;;;;;13.25;8.63;;;3.20;79.60;;;;;;4921634;29;20114;-89
2021/01/17 05:42:46;;;;;;;16.58;10.05;;;3.20;79.50;;;;;;4922222;29;20043;-89
2021/01/17 05:45:19;;;;;;;19.88;11.73;;;3.20;79.50;;;;;;4922146;29;20178;-89
2021/01/17 05:47:52;;;;;;;17.00;10.55;;;3.20;79.60;;;;;;4921042;29;20040;-89
2021/01/17 05:50:19;;;;;;;17.70;9.98;;;3.20;79.70;;;;;;4904327;29;20087;-90
2021/01/17 05:52:50;;;;;;;15.45;9.43;;;3.10;80.30;;;;;;4902683;29;20057;-89
2021/01/17 05:55:16;;;;;;;15.85;9.55;;;3.10;79.80;;;;;;4887795;29;20044;-88
2021/01/17 05:57:42;;;;;;;14.88;9.07;;;3.10;79.70;;;;;;4890925;29;20032;-88
2021/01/17 06:00:08;;;;;;;15.38;9.35;;;3.10;79.70;;;;;;4921733;29;20118;-87
2021/01/17 06:02:35;;;;;;;15.75;9.45;;;3.20;79.70;;;;;;4919261;29;20040;-87
2021/01/17 06:05:03;;;;;;;15.15;8.77;;;3.20;79.70;;;;;;4907110;29;20410;-86
2021/01/17 06:07:32;;;;;;;13.75;8.73;;;3.20;79.70;;;;;;4921114;29;20042;-86
2021/01/17 06:10:03;;;;;;;14.30;9.15;;;3.20;79.70;;;;;;4921206;29;20050;-86
2021/01/17 06:12:33;;;;;;;13.80;9.05;;;3.20;79.70;;;;;;4937697;29;20135;-86
2021/01/17 06:15:17;;;;;;;13.63;8.27;;;3.20;79.80;;;;;;4921688;29;20024;-86
2021/01/17 06:17:47;;;;;;;14.68;8.15;;;3.20;79.80;;;;;;4909696;29;20118;-86
2021/01/17 06:20:26;;;;;;;13.68;8.55;;;3.20;79.70;;;;;;4937020;29;20083;-86
2021/01/17 06:22:57;;;;;;;12.43;7.90;;;3.20;79.70;;;;;;4937851;29;20036;-86
2021/01/17 06:25:27;;;;;;;11.98;7.65;;;3.20;79.70;;;;;;4901895;29;20047;-85
2021/01/17 06:28:10;;;;;;;12.43;7.45;;;3.20;79.70;;;;;;4903951;29;20455;-86
2021/01/17 06:30:35;;;;;;;13.70;8.07;;;3.20;79.70;;;;;;4937377;29;20165;-86
2021/01/17 06:33:05;;;;;;;14.43;8.10;;;3.20;79.70;;;;;;4904931;29;20047;-86
2021/01/17 06:35:38;;;;;;;13.23;7.63;;;3.20;79.70;;;;;;4904943;29;20032;-86
2021/01/17 06:38:22;;;;;;;13.30;8.02;;;3.20;79.70;;;;;;4937520;29;20028;-87
2021/01/17 06:40:49;;;;;;;12.63;8.27;;;3.20;79.80;;;;;;4891848;29;20166;-85
2021/01/17 06:43:15;;;;;;;13.75;8.68;;;3.20;79.70;;;;;;4909848;29;20180;-85
2021/01/17 06:45:43;;;;;;;14.85;8.65;;;3.20;79.70;;;;;;4909110;29;20095;-84
2021/01/17 06:48:24;;;;;;;15.73;9.20;;;3.20;79.70;;;;;;4898351;29;20036;-84
2021/01/17 06:50:50;;;;;;;14.10;8.70;;;3.20;79.80;;;;;;4901172;29;20047;-84
2021/01/17 06:53:25;;;;;;;14.77;9.15;;;3.20;79.90;;;;;;4925885;29;20123;-84
2021/01/17 06:56:14;;;;;;;13.88;8.55;;;3.20;80.00;;;;;;4902345;29;20035;-84
2021/01/17 06:58:41;;;;;;;12.73;7.85;;;3.20;80.00;;;;;;4913225;29;20028;-85
2021/01/17 07:01:07;;;;;;;14.40;9.23;;;3.20;79.90;;;;;;4900656;29;20518;-87
2021/01/17 07:04:11;;;;;;;15.73;9.20;;;3.20;80.00;;;;;;4914855;29;20054;-87
2021/01/17 07:06:45;;;;;;;14.70;8.55;;;3.20;80.20;;;;;;4910492;29;20410;-87
2021/01/17 07:09:24;;;;;;;15.13;9.13;;;3.20;80.20;;;;;;4932711;29;20044;-86
2021/01/17 07:11:59;;;;;;;14.45;8.52;;;3.20;80.20;;;;;;4905622;29;20521;-86
2021/01/17 07:14:29;;;;;;;14.15;8.95;;;3.20;80.20;;;;;;4934592;29;20032;-85
2021/01/17 07:16:58;;;;;;;13.50;8.43;;;3.20;80.20;;;;;;4918569;29;20040;-85
2021/01/17 07:19:33;;;;;;;17.45;9.50;;;3.20;80.20;;;;;;4902475;29;20036;-85
2021/01/17 07:22:06;;;;;;;19.63;10.35;;;3.30;80.30;;;;;;4916757;29;20043;-85
2021/01/17 07:24:33;;;;;;;15.15;9.48;;;3.20;80.70;;;;;;4933522;29;20044;-85
2021/01/17 07:27:35;;;;;;;16.60;10.13;;;3.20;80.10;;;;;;4885867;29;20051;-85
2021/01/17 07:30:03;;;;;;;14.60;9.38;;;3.20;80.30;;;;;;4898828;29;20035;-85
2021/01/17 07:32:35;;;;;;;14.68;8.95;;;3.20;80.30;;;;;;4915781;29;20087;-85
2021/01/17 07:35:09;;;;;;;13.63;8.10;;;3.20;80.30;;;;;;4899495;29;20032;-85
2021/01/17 07:37:42;;;;;;;12.98;8.45;;;3.20;80.30;;;;;;4898900;29;20538;-85
2021/01/17 07:40:08;;;;;;;15.50;8.98;;;3.20;80.30;;;;;;4916206;29;20048;-85
2021/01/17 07:42:37;;;;;;;14.95;9.57;;;3.30;80.40;;;;;;4915807;29;20111;-84
2021/01/17 07:45:15;;;;;;;14.10;8.90;;;3.20;80.50;;;;;;4899157;29;20032;-84
2021/01/17 07:47:43;;;;;;;12.52;8.57;;;3.20;80.50;;;;;;4915565;29;20687;-84
2021/01/17 07:50:10;;;;;;;11.48;7.25;;;3.30;80.50;;;;;;4899016;29;20447;-85
2021/01/17 07:52:42;;;;;;;11.10;7.43;;;3.30;80.50;;;;;;4898608;29;20131;-84
2021/01/17 07:55:11;;;;;;;13.10;7.93;;;3.30;80.60;;;;;;4897885;29;20090;-84
2021/01/17 07:57:37;;;;;;;12.93;7.75;;;3.30;80.50;;;;;;4896107;29;20100;-84
2021/01/17 08:00:07;;;;;;;12.38;8.15;;;3.30;80.50;;;;;;4897005;29;20040;-84
2021/01/17 08:02:35;;;;;;;13.35;8.57;;;3.30;80.50;;;;;;4897732;29;20390;-84
2021/01/17 08:05:02;;;;;;;13.88;7.82;;;3.30;80.40;;;;;;4899058;29;20036;-84
2021/01/17 08:07:34;;;;;;;12.68;7.63;;;3.30;80.40;;;;;;4870811;29;20052;-84
2021/01/17 08:10:01;;;;;;;12.18;7.72;;;3.30;80.50;;;;;;4896591;23;20085;-87
2021/01/17 08:12:31;;;;;;;13.93;8.20;;;3.30;80.50;;;;;;4883786;29;20048;-90
2021/01/17 08:15:18;;;;;;;13.50;7.90;;;3.30;80.50;;;;;;4926211;29;20123;-88
2021/01/17 08:17:45;;;;;;;11.70;7.55;;;3.30;80.50;;;;;;4918192;29;20065;-90
2021/01/17 08:20:28;;;;;;;12.50;7.70;;;3.30;80.40;;;;;;4918506;29;20036;-89
2021/01/17 08:23:04;;;;;;;12.30;7.95;;;3.40;80.50;;;;;;4900237;29;20035;-86
2021/01/17 08:25:57;;;;;;;11.20;7.10;;;3.40;80.50;;;;;;4935720;29;20038;-90
2021/01/17 08:28:33;;;;;;;12.02;7.25;;;3.40;80.40;;;;;;4881570;29;20411;-87
2021/01/17 08:30:58;;;;;;;13.82;7.45;;;3.40;80.50;;;;;;4884589;29;20048;-90
2021/01/17 08:33:27;;;;;;;14.32;8.30;;;3.40;80.40;;;;;;4869082;29;20043;-86
2021/01/17 08:35:53;;;;;;;12.57;7.70;;;3.40;80.40;;;;;;4884336;29;20435;-86
2021/01/17 08:38:20;;;;;;;11.27;7.18;;;3.40;80.40;;;;;;4887603;29;20490;-85
2021/01/17 08:40:51;;;;;;;13.05;7.70;;;3.40;80.40;;;;;;4917289;29;20095;-86
2021/01/17 08:43:17;;;;;;;15.82;8.38;;;3.40;80.30;;;;;;4929879;29;20036;-87
2021/01/17 08:45:45;;;;;;;17.17;8.75;;;3.40;80.30;;;;;;4918172;29;20039;-86
2021/01/17 08:48:17;;;;;;;14.25;8.45;;;3.40;80.30;;;;;;4918654;29;20367;-89
2021/01/17 08:50:44;;;;;;;17.27;10.05;;;3.40;80.40;;;;;;4935195;29;20036;-85
2021/01/17 08:53:12;;;;;;;17.20;9.68;;;3.40;80.30;;;;;;4919022;29;20072;-87
2021/01/17 08:55:38;;;;;;;18.95;9.88;;;3.40;80.40;;;;;;4918182;29;20103;-88
2021/01/17 08:58:04;;;;;;;18.42;10.50;;;3.40;80.50;;;;;;4918763;29;20080;-85
2021/01/17 09:00:48;;;;;;;20.42;10.90;;;3.40;80.40;;;;;;4903518;29;20039;-89
2021/01/17 09:03:37;;;;;;;17.25;10.15;;;3.40;80.60;;;;;;4919231;29;20389;-89
2021/01/17 09:06:11;;;;;;;20.20;10.70;;;3.40;80.40;;;;;;4919374;29;20127;-87
2021/01/17 09:08:41;;;;;;;22.10;10.45;;;3.40;80.40;;;;;;4908921;29;20501;-89
2021/01/17 09:11:29;;;;;;;20.63;10.68;;;3.40;80.40;;;;;;4916350;29;20047;-89
2021/01/17 09:14:18;;;;;;;18.02;9.93;;;3.40;80.50;;;;;;4918188;29;20047;-91
2021/01/17 09:17:07;;;;;;;22.27;11.30;;;3.40;80.50;;;;;;4900077;29;20032;-92
2021/01/17 09:19:37;;;;;;;21.02;11.52;;;3.50;80.50;;;;;;4900309;29;20067;-91
2021/01/17 09:22:04;;;;;;;22.80;11.90;;;3.40;80.40;;;;;;4892345;29;20500;-90
2021/01/17 09:24:33;;;;;;;20.08;11.90;;;3.50;80.50;;;;;;4902521;29;20554;-89
2021/01/17 09:27:01;;;;;;;26.40;13.68;;;3.50;80.60;;;;;;4918000;29;20048;-90
2021/01/17 09:29:31;;;;;;;28.80;14.13;;;3.50;80.60;;;;;;4918327;29;20169;-90
2021/01/17 09:32:10;;;;;;;32.20;15.93;;;3.50;80.80;;;;;;4934615;29;20038;-90
2021/01/17 09:34:41;;;;;;;36.10;16.17;;;3.50;81.30;;;;;;4914145;29;20397;-89
2021/01/17 09:37:12;;;;;;;28.63;14.27;;;3.50;81.50;;;;;;4898902;29;20051;-90
2021/01/17 09:39:44;;;;;;;30.45;14.50;;;3.50;81.60;;;;;;4915820;29;20044;-91
2021/01/17 09:43:05;;;;;;;33.40;15.60;;;3.50;81.70;;;;;;4918717;29;20062;-91
2021/01/17 09:45:36;;;;;;;27.17;13.75;;;3.60;82.10;;;;;;4929411;29;20042;-91
2021/01/17 09:48:03;;;;;;;28.20;15.15;;;3.60;82.10;;;;;;4918120;29;20561;-91
2021/01/17 09:50:36;;;;;;;32.13;14.93;;;3.60;82.20;;;;;;4902654;29;20043;-90
2021/01/17 09:53:06;;;;;;;29.10;14.38;;;3.60;82.40;;;;;;4920941;29;20046;-91
2021/01/17 09:55:33;;;;;;;28.20;14.68;;;3.60;82.40;;;;;;4920982;29;20050;-90
2021/01/17 09:58:06;;;;;;;29.63;14.50;;;3.60;82.50;;;;;;4905230;29;20052;-91
2021/01/17 10:00:31;;;;;;;27.60;13.85;;;3.70;82.60;;;;;;4921252;29;20039;-91
2021/01/17 10:02:58;;;;;;;24.88;13.40;;;3.70;82.50;;;;;;4917324;29;20427;-91
2021/01/17 10:05:32;;;;;;;31.27;14.68;;;3.70;82.40;;;;;;4937877;29;20043;-90
2021/01/17 10:08:02;;;;;;;31.60;16.00;;;3.80;82.60;;;;;;4901822;29;20151;-91
2021/01/17 10:10:28;;;;;;;30.38;14.38;;;3.80;82.80;;;;;;4921176;29;20083;-90
2021/01/17 10:12:54;;;;;;;29.52;14.02;;;3.80;83.10;;;;;;4903005;29;20051;-89
2021/01/17 10:15:21;;;;;;;32.03;14.27;;;3.80;83.30;;;;;;4875922;29;20052;-89
2021/01/17 10:17:47;;;;;;;28.98;14.40;;;3.90;83.40;;;;;;4900962;29;20079;-90
2021/01/17 10:20:31;;;;;;;37.03;15.25;;;3.90;83.80;;;;;;4900625;29;20042;-90
2021/01/17 10:23:08;;;;;;;30.63;13.95;;;3.90;84.40;;;;;;4920231;29;20126;-90
2021/01/17 10:25:35;;;;;;;33.58;14.40;;;4.00;84.50;;;;;;4904629;29;20501;-91
2021/01/17 10:28:07;;;;;;;36.42;14.82;;;4.00;84.40;;;;;;4918966;29;20047;-90
2021/01/17 10:30:40;;;;;;;36.85;14.65;;;4.00;84.90;;;;;;4915690;29;20132;-90
2021/01/17 10:33:13;;;;;;;37.53;15.32;;;4.10;85.50;;;;;;4908857;29;20375;-90
2021/01/17 10:35:43;;;;;;;31.20;13.75;;;4.10;85.70;;;;;;4929421;29;20043;-90
2021/01/17 10:38:11;;;;;;;30.98;12.85;;;4.20;85.70;;;;;;4919597;29;20054;-89
2021/01/17 10:40:38;;;;;;;38.78;16.33;;;4.30;85.90;;;;;;4903508;29;20103;-90
2021/01/17 10:43:07;;;;;;;50.58;18.20;;;4.30;86.40;;;;;;4933702;29;20066;-89
2021/01/17 10:45:33;;;;;;;48.60;17.08;;;4.30;87.10;;;;;;4919408;29;20127;-89
2021/01/17 10:48:15;;;;;;;49.15;16.65;;;4.40;87.60;;;;;;4881769;29;20036;-89
2021/01/17 10:50:46;;;;;;;51.08;16.70;;;4.40;88.10;;;;;;4916272;29;20067;-89
2021/01/17 10:53:31;;;;;;;36.88;14.68;;;4.50;88.40;;;;;;4919535;29;20124;-90
2021/01/17 10:55:58;;;;;;;39.67;15.60;;;4.50;88.20;;;;;;4919045;29;20063;-90
2021/01/17 10:58:32;;;;;;;36.20;14.82;;;4.60;88.40;;;;;;4908325;29;20115;-90
2021/01/17 11:01:00;;;;;;;52.63;16.63;;;4.70;88.60;;;;;;4915039;29;20100;-89
2021/01/17 11:03:37;;;;;;;34.37;12.40;;;4.70;88.60;;;;;;4916821;29;20047;-89
2021/01/17 11:06:12;;;;;;;37.03;14.75;;;4.80;88.70;;;;;;4918717;29;20299;-89
2021/01/17 11:08:55;;;;;;;40.22;14.52;;;4.80;88.70;;;;;;4916076;29;20483;-89
2021/01/17 11:11:29;;;;;;;49.20;15.25;;;4.90;89.00;;;;;;4934081;29;20044;-88
2021/01/17 11:13:56;;;;;;;38.90;14.70;;;4.90;89.20;;;;;;4911755;29;20042;-87
2021/01/17 11:16:42;;;;;;;38.50;14.93;;;5.00;89.30;;;;;;4903329;29;20482;-87
2021/01/17 11:19:14;;;;;;;36.72;12.32;;;5.00;89.80;;;;;;4915025;29;20165;-87
2021/01/17 11:21:41;;;;;;;30.42;12.45;;;5.10;89.70;;;;;;4909134;29;20485;-87
2021/01/17 11:24:08;;;;;;;34.85;12.68;;;5.20;89.50;;;;;;4913967;29;20044;-86
2021/01/17 11:26:34;;;;;;;35.95;12.73;;;5.20;89.60;;;;;;4900724;29;20041;-86
2021/01/17 11:29:04;;;;;;;27.90;10.57;;;5.20;89.70;;;;;;4918444;29;20039;-87
2021/01/17 11:31:30;;;;;;;35.15;12.63;;;5.30;89.60;;;;;;4935785;29;20040;-87
2021/01/17 11:33:56;;;;;;;30.40;13.05;;;5.30;89.70;;;;;;4918649;29;20046;-86
2021/01/17 11:36:28;;;;;;;36.28;14.38;;;5.40;90.00;;;;;;4918678;29;20504;-86
2021/01/17 11:38:56;;;;;;;30.50;11.95;;;5.40;90.30;;;;;;4902433;29;20048;-86
2021/01/17 11:41:39;;;;;;;31.92;11.85;;;5.50;90.00;;;;;;4918646;29;20044;-87
2021/01/17 11:44:14;;;;;;;43.83;13.50;;;5.50;90.40;;;;;;4915614;29;20126;-86
2021/01/17 11:46:41;;;;;;;33.90;13.13;;;5.60;90.20;;;;;;4935912;29;20035;-87
2021/01/17 11:49:08;;;;;;;36.67;12.18;;;5.60;90.20;;;;;;4899799;29;20035;-85
2021/01/17 11:51:35;;;;;;;39.47;12.60;;;5.70;90.30;;;;;;4918089;29;20080;-86
2021/01/17 11:54:21;;;;;;;33.63;11.48;;;5.70;90.20;;;;;;4902051;29;20048;-87
2021/01/17 11:56:48;;;;;;;40.92;12.82;;;5.80;90.20;;;;;;4918812;29;20127;-87
2021/01/17 11:59:33;;;;;;;31.95;11.00;;;5.80;90.10;;;;;;4919061;29;20508;-88
2021/01/17 12:02:19;;;;;;;52.90;14.35;;;5.90;90.10;;;;;;4936542;29;20047;-88
2021/01/17 12:04:46;;;;;;;32.78;12.02;;;5.90;90.10;;;;;;4935649;29;20036;-86
2021/01/17 12:07:12;;;;;;;35.22;11.93;;;6.00;90.10;;;;;;4917543;29;20135;-87
2021/01/17 12:09:39;;;;;;;31.95;12.27;;;6.00;90.00;;;;;;4917542;29;20498;-87
2021/01/17 12:12:18;;;;;;;29.63;10.90;;;6.00;90.10;;;;;;4901573;29;20040;-87
2021/01/17 12:14:45;;;;;;;39.28;13.43;;;6.10;90.10;;;;;;4934035;29;20028;-88
2021/01/17 12:17:11;;;;;;;29.80;11.50;;;6.10;90.20;;;;;;4934643;29;20028;-88
2021/01/17 12:19:38;;;;;;;32.22;10.40;;;6.20;90.20;;;;;;4902543;29;20090;-88
2021/01/17 12:22:06;;;;;;;38.95;11.50;;;6.20;90.10;;;;;;4917380;29;20036;-87
2021/01/17 12:24:33;;;;;;;42.55;13.48;;;6.30;90.00;;;;;;4902220;29;20040;-88
2021/01/17 12:26:58;;;;;;;31.55;10.93;;;6.30;90.10;;;;;;4917420;29;20059;-87
2021/01/17 12:29:24;;;;;;;40.03;14.30;;;6.30;90.10;;;;;;4902070;29;20044;-88
2021/01/17 12:31:51;;;;;;;31.38;10.65;;;6.30;90.10;;;;;;4917609;29;20043;-88
2021/01/17 12:34:18;;;;;;;37.03;10.82;;;6.40;90.00;;;;;;4917692;29;20106;-88
2021/01/17 12:36:45;;;;;;;25.70;8.40;;;6.40;90.00;;;;;;4901955;29;20032;-88
2021/01/17 12:39:14;;;;;;;23.27;8.10;;;6.50;90.00;;;;;;4917118;29;20067;-88
2021/01/17 12:41:45;;;;;;;28.48;9.38;;;6.50;89.80;;;;;;4917529;29;20087;-88
2021/01/17 12:44:15;;;;;;;23.50;8.20;;;6.50;89.60;;;;;;4917343;29;20127;-88
2021/01/17 12:46:42;;;;;;;23.98;8.00;;;6.60;89.40;;;;;;4917481;29;20036;-88
2021/01/17 12:49:08;;;;;;;23.88;7.97;;;6.60;89.30;;;;;;4917269;29;20114;-88
2021/01/17 12:51:34;;;;;;;25.05;8.27;;;6.70;89.30;;;;;;4889511;29;20130;-88
2021/01/17 12:54:00;;;;;;;23.98;9.15;;;6.70;89.20;;;;;;4915454;29;20466;-87
2021/01/17 12:56:25;;;;;;;21.63;7.97;;;6.70;89.10;;;;;;4898566;29;20533;-88